Time;durP1;ratioP1;P1;durP2;ratioP2;P2;SDS_P1;SDS_P2;PMS_P1;PMS_P2;Temp;Humidity;BMP_temperature;BMP_pressure;BME280_temperature;BME280_humidity;BME280_pressure;Samples;Min_cycle;Max_cycle;Signal;HPM_P1;HPM_P2
2024/02/03 00:01:08;;;;;;;7.20;4.23;;;11.80;99.90;;;;;;7283728;19;20675;-81
2024/02/03 00:03:34;;;;;;;8.70;4.80;;;11.70;99.90;;;;;;7280598;19;20185;-81
2024/02/03 00:06:00;;;;;;;9.17;5.00;;;11.60;99.90;;;;;;7306408;19;20198;-81
2024/02/03 00:08:25;;;;;;;10.03;4.97;;;11.40;99.90;;;;;;7285274;19;20192;-81
2024/02/03 00:10:51;;;;;;;9.07;5.27;;;11.40;99.90;;;;;;7282990;19;20276;-81
2024/02/03 00:13:17;;;;;;;10.20;5.13;;;11.50;99.90;;;;;;7283155;19;20211;-81
2024/02/03 00:15:42;;;;;;;13.80;6.37;;;11.50;99.90;;;;;;7283627;19;20204;-81
2024/02/03 00:18:08;;;;;;;11.43;5.73;;;11.50;99.90;;;;;;7282385;19;20181;-82
2024/02/03 00:20:34;;;;;;;11.03;5.93;;;11.40;99.90;;;;;;7282885;19;20189;-81
2024/02/03 00:23:00;;;;;;;10.03;5.50;;;11.30;99.90;;;;;;7306586;19;20197;-81
2024/02/03 00:25:26;;;;;;;11.60;6.00;;;11.40;99.90;;;;;;7283536;19;20200;-81
2024/02/03 00:27:52;;;;;;;11.10;6.43;;;11.30;99.90;;;;;;7283397;19;21053;-81
2024/02/03 00:30:20;;;;;;;12.43;6.57;;;11.30;99.90;;;;;;7282659;19;20190;-82
2024/02/03 00:32:46;;;;;;;10.03;6.20;;;11.30;99.90;;;;;;7282302;19;20217;-82
2024/02/03 00:35:12;;;;;;;9.90;6.13;;;11.40;99.90;;;;;;7280665;19;20181;-81
2024/02/03 00:37:37;;;;;;;11.40;6.60;;;11.30;99.90;;;;;;7278789;19;20296;-81
2024/02/03 00:40:04;;;;;;;12.33;6.80;;;11.30;99.90;;;;;;7279193;19;20289;-81
2024/02/03 00:42:30;;;;;;;10.63;6.30;;;11.30;99.90;;;;;;7305347;19;20209;-81
2024/02/03 00:44:56;;;;;;;12.67;6.77;;;11.30;99.90;;;;;;7283514;19;20264;-81
2024/02/03 00:47:21;;;;;;;11.83;5.97;;;11.40;99.90;;;;;;7280426;19;20275;-82
2024/02/03 00:49:47;;;;;;;13.97;6.93;;;11.40;99.90;;;;;;7283262;19;20192;-81
2024/02/03 00:52:13;;;;;;;12.73;6.97;;;11.40;99.90;;;;;;7282193;19;20192;-81
2024/02/03 00:54:39;;;;;;;11.40;6.70;;;11.40;99.90;;;;;;7281102;19;20244;-80
2024/02/03 00:57:07;;;;;;;12.40;6.57;;;11.30;99.90;;;;;;7282260;19;20192;-80
2024/02/03 00:59:33;;;;;;;13.30;6.63;;;11.40;99.90;;;;;;7281298;19;20185;-82
2024/02/03 01:01:59;;;;;;;10.93;6.57;;;11.30;99.90;;;;;;7304558;19;20675;-82
2024/02/03 01:04:24;;;;;;;14.57;7.37;;;11.40;99.90;;;;;;7280688;19;20189;-83
2024/02/03 01:06:54;;;;;;;14.73;7.03;;;11.50;99.90;;;;;;7279415;19;20775;-81
2024/02/03 01:09:24;;;;;;;12.80;6.97;;;11.60;99.90;;;;;;7285875;19;20189;-81
2024/02/03 01:11:50;;;;;;;13.30;7.50;;;11.60;99.90;;;;;;7289799;19;20195;-80
2024/02/03 01:14:15;;;;;;;13.80;7.43;;;11.70;99.90;;;;;;7288466;19;20189;-81
2024/02/03 01:16:43;;;;;;;13.93;7.23;;;11.60;99.90;;;;;;7290973;19;20204;-81
2024/02/03 01:19:09;;;;;;;16.57;7.67;;;11.60;99.90;;;;;;7311306;19;20194;-80
2024/02/03 01:21:36;;;;;;;14.20;7.00;;;11.60;99.90;;;;;;7289083;19;20249;-81
2024/02/03 01:24:02;;;;;;;12.67;7.53;;;11.60;99.90;;;;;;7288107;19;20196;-81
2024/02/03 01:26:28;;;;;;;13.30;7.90;;;11.70;99.90;;;;;;7287427;19;20189;-81
2024/02/03 01:28:54;;;;;;;14.43;7.50;;;11.70;99.90;;;;;;7288775;19;21104;-81
2024/02/03 01:31:20;;;;;;;13.10;8.40;;;11.70;99.90;;;;;;7289096;19;20785;-82
2024/02/03 01:33:45;;;;;;;15.43;7.97;;;11.70;99.90;;;;;;7285854;19;20860;-81
2024/02/03 01:36:11;;;;;;;14.50;7.87;;;11.70;99.90;;;;;;7289674;19;20197;-80
2024/02/03 01:38:37;;;;;;;12.53;8.47;;;11.80;99.90;;;;;;7307934;19;20221;-80
2024/02/03 01:41:03;;;;;;;16.77;8.40;;;11.80;99.90;;;;;;7286846;19;20185;-81
2024/02/03 01:43:28;;;;;;;16.27;8.37;;;11.70;99.90;;;;;;7285299;19;20210;-81
2024/02/03 01:45:54;;;;;;;16.17;8.70;;;11.60;99.90;;;;;;7287557;19;20199;-82
2024/02/03 01:48:20;;;;;;;15.20;9.13;;;11.70;99.90;;;;;;7286372;19;20193;-82
2024/02/03 01:50:52;;;;;;;15.13;8.67;;;11.70;99.90;;;;;;7289492;19;20209;-81
2024/02/03 01:53:18;;;;;;;18.47;8.87;;;11.70;99.90;;;;;;7287356;19;20190;-81
2024/02/03 01:55:45;;;;;;;16.33;9.10;;;11.70;99.90;;;;;;7283248;19;20188;-81
2024/02/03 01:58:11;;;;;;;14.13;8.07;;;11.70;99.90;;;;;;7296114;19;20703;-81
2024/02/03 02:00:37;;;;;;;15.00;8.63;;;11.70;99.90;;;;;;7309421;19;20289;-81
2024/02/03 02:03:02;;;;;;;17.03;9.20;;;11.60;99.90;;;;;;7288808;19;20197;-81
2024/02/03 02:05:28;;;;;;;17.53;8.53;;;11.60;99.90;;;;;;7288384;19;20278;-81
2024/02/03 02:07:54;;;;;;;15.13;8.17;;;11.60;99.90;;;;;;7287268;19;20188;-81
2024/02/03 02:10:20;;;;;;;15.53;8.73;;;11.60;99.90;;;;;;7287993;19;20221;-81
2024/02/03 02:12:46;;;;;;;15.60;9.23;;;11.60;99.90;;;;;;7287111;19;20210;-81
2024/02/03 02:15:12;;;;;;;17.37;8.80;;;11.60;99.90;;;;;;7287266;19;20189;-81
2024/02/03 02:17:37;;;;;;;18.77;8.93;;;11.60;99.90;;;;;;7309988;19;20189;-81
2024/02/03 02:20:05;;;;;;;15.43;9.13;;;11.60;99.90;;;;;;7285917;19;20214;-81
2024/02/03 02:22:32;;;;;;;17.27;9.43;;;11.60;99.90;;;;;;7286894;19;20697;-82
2024/02/03 02:24:59;;;;;;;19.13;9.10;;;11.60;99.90;;;;;;7286715;19;20202;-81
2024/02/03 02:27:24;;;;;;;18.70;9.60;;;11.60;99.90;;;;;;7286480;19;20188;-81
2024/02/03 02:29:50;;;;;;;23.23;10.07;;;11.60;99.90;;;;;;7288301;19;20189;-80
2024/02/03 02:32:16;;;;;;;17.43;10.07;;;11.50;99.90;;;;;;7286207;19;20208;-81
2024/02/03 02:34:42;;;;;;;18.07;10.63;;;11.50;99.90;;;;;;7286247;19;20219;-81
2024/02/03 02:37:08;;;;;;;22.90;10.37;;;11.50;99.90;;;;;;7309619;19;20189;-81
2024/02/03 02:39:34;;;;;;;22.23;10.40;;;11.60;99.90;;;;;;7283263;19;20260;-82
2024/02/03 02:41:59;;;;;;;19.47;11.00;;;11.60;99.90;;;;;;7286681;19;20201;-81
2024/02/03 02:44:27;;;;;;;19.30;10.87;;;11.60;99.90;;;;;;7288365;19;20189;-82
2024/02/03 02:46:52;;;;;;;20.83;10.83;;;11.60;99.90;;;;;;7285722;19;20182;-82
2024/02/03 02:49:18;;;;;;;16.53;10.43;;;11.60;99.90;;;;;;7291355;19;20615;-80
2024/02/03 02:51:44;;;;;;;17.33;10.70;;;11.60;99.90;;;;;;7291829;19;21532;-81
2024/02/03 02:54:09;;;;;;;17.53;10.20;;;11.50;99.90;;;;;;7308967;19;20185;-82
2024/02/03 02:56:35;;;;;;;21.67;10.73;;;11.60;99.90;;;;;;7287163;19;20192;-82
2024/02/03 02:59:01;;;;;;;20.53;10.83;;;11.70;99.90;;;;;;7286983;19;20174;-82
2024/02/03 03:01:28;;;;;;;19.83;10.60;;;11.70;99.90;;;;;;7285909;19;20189;-82
2024/02/03 03:03:54;;;;;;;16.67;9.50;;;11.60;99.90;;;;;;7285252;19;20197;-81
2024/02/03 03:06:21;;;;;;;18.00;9.97;;;11.60;99.90;;;;;;7285168;19;20189;-82
2024/02/03 03:08:46;;;;;;;15.67;9.83;;;11.60;99.90;;;;;;7285737;19;20195;-82
2024/02/03 03:11:13;;;;;;;17.33;10.10;;;11.60;99.90;;;;;;7286652;19;20404;-82
2024/02/03 03:13:39;;;;;;;15.97;9.00;;;11.50;99.90;;;;;;7306827;19;20712;-82
2024/02/03 03:16:09;;;;;;;18.33;9.57;;;11.50;99.90;;;;;;7286503;19;20664;-82
2024/02/03 03:18:41;;;;;;;21.13;10.17;;;11.50;99.90;;;;;;7287058;19;20189;-82
2024/02/03 03:21:07;;;;;;;18.33;9.40;;;11.60;99.90;;;;;;7285427;19;20217;-82
2024/02/03 03:23:34;;;;;;;16.53;9.20;;;11.60;99.90;;;;;;7285649;19;20207;-82
2024/02/03 03:26:00;;;;;;;17.70;8.83;;;11.60;99.90;;;;;;7284743;19;20296;-82
2024/02/03 03:28:26;;;;;;;17.10;8.77;;;11.60;99.90;;;;;;7284152;19;20202;-82
2024/02/03 03:30:52;;;;;;;19.03;8.80;;;11.50;99.90;;;;;;7285674;19;21866;-82
2024/02/03 03:33:19;;;;;;;17.23;8.60;;;11.60;99.90;;;;;;7281540;19;20191;-81
2024/02/03 03:35:44;;;;;;;18.50;8.80;;;11.50;99.90;;;;;;7283746;19;20817;-82
2024/02/03 03:38:11;;;;;;;20.33;9.37;;;11.60;99.90;;;;;;7307214;19;20181;-81
2024/02/03 03:40:39;;;;;;;16.10;8.70;;;11.60;99.90;;;;;;7283961;19;20192;-82
2024/02/03 03:43:07;;;;;;;21.50;9.43;;;11.50;99.90;;;;;;7284448;19;20190;-82
2024/02/03 03:45:34;;;;;;;17.20;9.00;;;11.50;99.90;;;;;;7284223;19;20960;-82
2024/02/03 03:48:00;;;;;;;18.23;8.27;;;11.50;99.90;;;;;;7281972;19;20189;-81
2024/02/03 03:50:25;;;;;;;15.80;8.57;;;11.50;99.90;;;;;;7284389;19;20193;-81
2024/02/03 03:52:51;;;;;;;21.33;8.67;;;11.60;99.90;;;;;;7283768;19;20183;-81
2024/02/03 03:55:17;;;;;;;18.20;8.57;;;11.60;99.90;;;;;;7283561;19;20196;-81
2024/02/03 03:57:43;;;;;;;22.07;8.93;;;11.60;99.90;;;;;;7295217;19;20180;-81
2024/02/03 04:00:10;;;;;;;18.17;8.80;;;11.60;99.90;;;;;;7301563;19;20181;-82
2024/02/03 04:02:39;;;;;;;17.10;7.80;;;11.70;99.90;;;;;;7284593;19;20222;-82
2024/02/03 04:05:06;;;;;;;16.63;8.77;;;11.60;99.90;;;;;;7283728;19;20181;-81
2024/02/03 04:07:32;;;;;;;18.90;8.70;;;11.70;99.90;;;;;;7284842;19;20248;-82
2024/02/03 04:09:57;;;;;;;16.47;8.23;;;11.60;99.90;;;;;;7283117;19;20632;-81
2024/02/03 04:12:23;;;;;;;17.00;8.17;;;11.70;99.90;;;;;;7284765;19;20188;-81
2024/02/03 04:14:49;;;;;;;19.97;7.80;;;11.70;99.90;;;;;;7282596;19;20242;-82
2024/02/03 04:17:15;;;;;;;16.03;8.07;;;11.70;99.90;;;;;;7284706;19;20185;-81
2024/02/03 04:19:42;;;;;;;20.23;8.50;;;11.70;99.90;;;;;;7305648;19;21013;-82
2024/02/03 04:22:12;;;;;;;17.93;8.30;;;11.70;99.90;;;;;;7282724;19;20289;-81
2024/02/03 04:24:38;;;;;;;16.33;7.83;;;11.80;99.90;;;;;;7284735;19;20185;-82
2024/02/03 04:27:04;;;;;;;18.83;8.20;;;11.80;99.90;;;;;;7281279;19;20203;-81
2024/02/03 04:29:30;;;;;;;19.97;8.50;;;11.80;99.90;;;;;;7283186;19;20193;-81
2024/02/03 04:31:56;;;;;;;18.50;8.70;;;11.80;99.90;;;;;;7282704;19;20189;-82
2024/02/03 04:34:21;;;;;;;16.83;8.03;;;11.80;99.90;;;;;;7283281;19;20188;-82
2024/02/03 04:36:47;;;;;;;20.93;7.90;;;11.80;99.90;;;;;;7281775;19;20197;-82
2024/02/03 04:39:13;;;;;;;15.33;8.03;;;11.80;99.90;;;;;;7291676;19;20680;-82
2024/02/03 04:41:39;;;;;;;15.50;8.07;;;11.80;99.90;;;;;;7300869;19;20608;-82
2024/02/03 04:44:05;;;;;;;20.70;7.67;;;11.80;99.90;;;;;;7285644;19;20197;-81
2024/02/03 04:46:31;;;;;;;20.03;8.13;;;11.80;99.90;;;;;;7289020;19;20193;-81
2024/02/03 04:48:57;;;;;;;23.07;8.70;;;11.90;99.90;;;;;;7290137;19;20193;-81
2024/02/03 04:51:23;;;;;;;17.77;8.07;;;11.90;99.90;;;;;;7290529;19;20208;-81
2024/02/03 04:53:49;;;;;;;23.07;8.40;;;11.90;99.90;;;;;;7289951;19;20985;-81
2024/02/03 04:56:16;;;;;;;17.07;7.73;;;11.90;99.90;;;;;;7290176;19;20196;-81
2024/02/03 04:58:42;;;;;;;18.83;8.33;;;11.80;99.90;;;;;;7313249;19;20194;-82
2024/02/03 05:01:08;;;;;;;21.97;8.33;;;11.80;99.90;;;;;;7289790;19;20209;-81
2024/02/03 05:03:36;;;;;;;19.37;7.87;;;11.70;99.90;;;;;;7290940;19;20193;-82
2024/02/03 05:06:03;;;;;;;21.83;7.93;;;11.70;99.90;;;;;;7285961;19;20329;-82
2024/02/03 05:08:30;;;;;;;22.47;7.70;;;11.80;99.90;;;;;;7290009;19;20188;-82
2024/02/03 05:10:56;;;;;;;19.67;7.90;;;11.80;99.90;;;;;;7288757;19;20646;-81
2024/02/03 05:13:22;;;;;;;16.20;7.70;;;11.80;99.90;;;;;;7288483;19;20186;-81
2024/02/03 05:15:48;;;;;;;18.37;7.87;;;11.90;99.90;;;;;;7289238;19;20180;-81
2024/02/03 05:18:13;;;;;;;20.27;7.93;;;11.90;99.90;;;;;;7295187;19;20184;-80
2024/02/03 05:20:39;;;;;;;23.23;8.43;;;11.80;99.90;;;;;;7310263;19;20293;-80
2024/02/03 05:23:05;;;;;;;20.47;7.63;;;11.90;99.90;;;;;;7288309;19;20192;-81
2024/02/03 05:25:31;;;;;;;18.73;7.40;;;11.90;99.90;;;;;;7288184;19;20256;-82
2024/02/03 05:27:56;;;;;;;18.20;6.90;;;11.90;99.90;;;;;;7286298;19;20574;-82
2024/02/03 05:30:22;;;;;;;17.60;7.50;;;11.80;99.90;;;;;;7288627;19;20212;-82
2024/02/03 05:32:48;;;;;;;17.30;7.63;;;11.80;99.90;;;;;;7288433;19;20573;-81
2024/02/03 05:35:14;;;;;;;16.87;7.47;;;11.90;99.90;;;;;;7291106;19;20602;-80
2024/02/03 05:37:39;;;;;;;19.37;7.67;;;11.90;99.90;;;;;;7309938;19;20595;-81
2024/02/03 05:40:06;;;;;;;19.10;7.20;;;11.90;99.90;;;;;;7288291;19;20777;-81
2024/02/03 05:42:32;;;;;;;17.33;7.33;;;11.90;99.90;;;;;;7292804;19;20190;-81
2024/02/03 05:44:58;;;;;;;18.43;7.60;;;11.90;99.90;;;;;;7291957;19;20654;-81
2024/02/03 05:47:25;;;;;;;14.40;6.93;;;11.90;99.90;;;;;;7289292;19;20193;-81
2024/02/03 05:49:52;;;;;;;18.57;7.97;;;12.00;99.90;;;;;;7289127;19;20210;-81
2024/02/03 05:52:18;;;;;;;18.03;7.43;;;12.00;99.90;;;;;;7288962;19;20195;-81
2024/02/03 05:54:44;;;;;;;20.37;7.57;;;12.00;99.90;;;;;;7290161;19;20193;-81
2024/02/03 05:57:13;;;;;;;17.07;7.87;;;12.00;99.90;;;;;;7309134;19;20524;-82
2024/02/03 05:59:43;;;;;;;20.20;7.77;;;12.00;99.90;;;;;;7284564;19;20185;-82
2024/02/03 06:02:08;;;;;;;21.10;7.47;;;12.00;99.90;;;;;;7286942;19;20690;-82
2024/02/03 06:04:34;;;;;;;21.63;7.60;;;12.00;99.90;;;;;;7288365;19;20189;-82
2024/02/03 06:07:00;;;;;;;19.83;7.50;;;12.00;99.90;;;;;;7287204;19;20200;-82
2024/02/03 06:09:25;;;;;;;18.63;7.67;;;11.90;99.90;;;;;;7287195;19;20258;-82
2024/02/03 06:11:51;;;;;;;15.23;7.10;;;11.90;99.90;;;;;;7286351;19;20200;-82
2024/02/03 06:14:17;;;;;;;22.33;8.07;;;11.90;99.90;;;;;;7287177;19;20181;-81
2024/02/03 06:16:43;;;;;;;17.90;7.27;;;12.00;99.90;;;;;;7299529;19;20653;-81
2024/02/03 06:19:09;;;;;;;20.07;7.17;;;12.00;99.90;;;;;;7302353;19;20523;-82
2024/02/03 06:21:34;;;;;;;17.87;7.30;;;12.00;99.90;;;;;;7286772;19;20217;-82
2024/02/03 06:24:02;;;;;;;21.17;7.73;;;12.10;99.90;;;;;;7286351;19;20193;-81
2024/02/03 06:26:30;;;;;;;19.13;7.80;;;12.10;99.90;;;;;;7285105;19;20598;-82
2024/02/03 06:28:57;;;;;;;18.37;7.67;;;12.00;99.90;;;;;;7288299;19;20189;-81
2024/02/03 06:31:22;;;;;;;16.87;8.03;;;12.10;99.90;;;;;;7287347;19;20526;-81
2024/02/03 06:33:48;;;;;;;20.40;8.23;;;12.00;99.90;;;;;;7285752;19;20181;-81
2024/02/03 06:36:14;;;;;;;22.40;7.77;;;12.10;99.90;;;;;;7293195;19;20270;-80
2024/02/03 06:38:40;;;;;;;17.53;8.03;;;12.10;99.90;;;;;;7307071;19;20289;-82
2024/02/03 06:41:06;;;;;;;20.50;8.00;;;12.10;99.90;;;;;;7280182;19;20256;-82
2024/02/03 06:43:31;;;;;;;20.20;8.67;;;12.00;99.90;;;;;;7280273;19;20652;-83
2024/02/03 06:45:57;;;;;;;18.50;9.03;;;12.10;99.90;;;;;;7283886;19;20209;-83
2024/02/03 06:48:24;;;;;;;17.97;8.47;;;12.10;99.90;;;;;;7284468;19;20644;-82
2024/02/03 06:50:50;;;;;;;16.93;9.30;;;12.10;99.90;;;;;;7286698;19;20232;-82
2024/02/03 06:53:16;;;;;;;26.50;10.00;;;12.00;99.90;;;;;;7285349;19;20185;-82
2024/02/03 06:55:42;;;;;;;19.00;9.03;;;12.00;99.90;;;;;;7307745;19;20191;-82
2024/02/03 06:58:07;;;;;;;21.70;9.60;;;12.00;99.90;;;;;;7285845;19;20200;-82
2024/02/03 07:00:33;;;;;;;20.50;9.07;;;12.00;99.90;;;;;;7287978;19;20185;-82
2024/02/03 07:02:59;;;;;;;23.50;9.80;;;12.00;99.90;;;;;;7286227;19;20176;-84
2024/02/03 07:05:25;;;;;;;19.67;9.27;;;12.00;99.90;;;;;;7288460;19;20185;-82
2024/02/03 07:07:53;;;;;;;22.30;9.00;;;12.00;99.90;;;;;;7285310;19;20186;-81
2024/02/03 07:10:18;;;;;;;24.33;9.20;;;11.90;99.90;;;;;;7286870;19;20217;-81
2024/02/03 07:12:44;;;;;;;21.90;9.40;;;12.00;99.90;;;;;;7288100;19;20293;-80
2024/02/03 07:15:10;;;;;;;23.17;8.60;;;12.00;99.90;;;;;;7305355;19;20188;-81
2024/02/03 07:17:36;;;;;;;23.03;9.23;;;11.90;99.90;;;;;;7285903;19;20181;-81
2024/02/03 07:20:02;;;;;;;23.53;9.20;;;11.90;99.90;;;;;;7284670;19;20218;-81
2024/02/03 07:22:28;;;;;;;20.40;9.03;;;11.90;99.90;;;;;;7285743;19;20197;-82
2024/02/03 07:24:53;;;;;;;17.87;8.40;;;11.90;99.90;;;;;;7286223;19;20198;-80
2024/02/03 07:27:19;;;;;;;17.07;9.13;;;11.90;99.90;;;;;;7286373;19;20258;-80
2024/02/03 07:29:45;;;;;;;20.30;8.67;;;12.00;99.90;;;;;;7297381;19;20200;-81
2024/02/03 07:32:11;;;;;;;19.20;8.30;;;12.10;99.90;;;;;;7318639;19;20597;-80
2024/02/03 07:34:40;;;;;;;22.87;8.57;;;12.10;99.90;;;;;;7291758;19;20201;-80
2024/02/03 07:37:06;;;;;;;19.07;8.60;;;12.10;99.90;;;;;;7298594;19;20192;-82
2024/02/03 07:39:32;;;;;;;21.40;8.73;;;12.20;99.90;;;;;;7299615;19;20237;-80
2024/02/03 07:41:58;;;;;;;20.80;8.80;;;12.20;99.90;;;;;;7290012;19;20194;-80
2024/02/03 07:44:23;;;;;;;21.63;9.03;;;12.20;99.90;;;;;;7284938;19;20195;-80
2024/02/03 07:46:49;;;;;;;18.73;7.73;;;12.20;99.90;;;;;;7283233;19;20237;-81
2024/02/03 07:49:15;;;;;;;21.00;8.77;;;12.10;99.90;;;;;;7285418;19;20557;-80
2024/02/03 07:51:40;;;;;;;25.07;8.50;;;12.10;99.90;;;;;;7304531;19;20319;-80
2024/02/03 07:54:06;;;;;;;21.13;7.87;;;12.20;99.90;;;;;;7283835;19;20215;-80
2024/02/03 07:56:32;;;;;;;15.97;7.73;;;12.30;99.90;;;;;;7285336;19;20204;-82
2024/02/03 07:58:58;;;;;;;17.30;7.07;;;12.30;99.90;;;;;;7284548;19;20219;-81
2024/02/03 08:01:23;;;;;;;17.87;7.50;;;12.40;99.90;;;;;;7281793;19;20198;-81
2024/02/03 08:03:50;;;;;;;16.20;6.80;;;12.40;99.90;;;;;;7281779;19;20577;-80
2024/02/03 08:06:16;;;;;;;17.17;6.87;;;12.30;99.90;;;;;;7283218;19;20186;-83
2024/02/03 08:08:42;;;;;;;17.10;6.90;;;12.40;99.90;;;;;;7306236;19;20634;-79
2024/02/03 08:11:09;;;;;;;15.83;6.40;;;12.40;99.90;;;;;;7284963;19;20200;-82
2024/02/03 08:13:35;;;;;;;16.10;6.37;;;12.40;99.90;;;;;;7284080;19;20949;-83
2024/02/03 08:16:00;;;;;;;17.37;6.50;;;12.50;99.90;;;;;;7283625;19;20198;-81
2024/02/03 08:18:26;;;;;;;14.07;6.03;;;12.50;99.90;;;;;;7281601;19;20201;-80
2024/02/03 08:20:52;;;;;;;14.83;5.70;;;12.50;99.90;;;;;;7283425;19;20207;-81
2024/02/03 08:23:18;;;;;;;15.00;6.20;;;12.60;99.90;;;;;;7285294;19;20196;-81
2024/02/03 08:25:44;;;;;;;14.93;6.63;;;12.70;99.90;;;;;;7295065;19;20517;-79
2024/02/03 08:28:09;;;;;;;15.17;5.93;;;12.70;99.90;;;;;;7303094;19;20193;-79
2024/02/03 08:30:37;;;;;;;14.47;6.33;;;12.70;99.90;;;;;;7285461;19;20811;-79
2024/02/03 08:33:03;;;;;;;28.77;7.57;;;12.60;99.90;;;;;;7283890;19;20266;-80
2024/02/03 08:35:29;;;;;;;15.80;6.13;;;12.50;99.90;;;;;;7283610;19;20194;-81
2024/02/03 08:37:54;;;;;;;21.23;7.40;;;12.50;99.90;;;;;;7283140;19;20728;-80
2024/02/03 08:40:21;;;;;;;21.80;7.30;;;12.50;99.90;;;;;;7282476;19;20190;-81
2024/02/03 08:42:47;;;;;;;16.50;6.50;;;12.60;99.90;;;;;;7281049;19;20197;-81
2024/02/03 08:45:15;;;;;;;17.73;6.73;;;12.60;99.90;;;;;;7285481;19;20191;-80
2024/02/03 08:47:41;;;;;;;18.87;6.80;;;12.70;99.90;;;;;;7305035;19;20217;-81
2024/02/03 08:50:07;;;;;;;20.53;6.70;;;12.50;99.90;;;;;;7282174;19;20184;-80
2024/02/03 08:52:33;;;;;;;19.20;6.60;;;12.60;99.90;;;;;;7283401;19;20219;-79
2024/02/03 08:55:00;;;;;;;19.17;7.30;;;12.50;99.90;;;;;;7282777;19;20181;-78
2024/02/03 08:57:25;;;;;;;24.70;7.80;;;12.50;99.90;;;;;;7281107;19;20196;-78
2024/02/03 08:59:52;;;;;;;22.70;7.70;;;12.70;99.90;;;;;;7282832;19;20608;-78
2024/02/03 09:02:17;;;;;;;21.40;7.40;;;12.80;99.90;;;;;;7282170;19;20202;-78
2024/02/03 09:04:43;;;;;;;20.23;7.43;;;12.90;99.90;;;;;;7299928;19;20189;-77
2024/02/03 09:07:09;;;;;;;21.73;7.47;;;12.90;99.90;;;;;;7293227;19;20192;-77
2024/02/03 09:09:35;;;;;;;15.30;6.57;;;12.90;99.90;;;;;;7280264;19;20195;-78
2024/02/03 09:12:04;;;;;;;19.13;7.27;;;12.90;99.90;;;;;;7280076;19;20253;-79
2024/02/03 09:14:29;;;;;;;19.17;6.97;;;12.90;99.90;;;;;;7280228;19;20277;-79
2024/02/03 09:16:55;;;;;;;20.73;6.90;;;12.80;99.90;;;;;;7280166;19;20191;-79
2024/02/03 09:19:21;;;;;;;17.83;6.87;;;12.70;99.90;;;;;;7279110;19;20209;-79
2024/02/03 09:21:47;;;;;;;18.00;7.50;;;12.80;99.90;;;;;;7281367;19;20233;-78
2024/02/03 09:24:16;;;;;;;18.23;6.97;;;12.80;99.90;;;;;;7304944;19;20740;-79
2024/02/03 09:26:43;;;;;;;17.20;7.30;;;12.90;99.90;;;;;;7281729;19;20199;-79
2024/02/03 09:29:09;;;;;;;23.73;7.37;;;13.00;99.90;;;;;;7282618;19;20652;-79
2024/02/03 09:31:35;;;;;;;18.40;7.00;;;13.00;99.90;;;;;;7289412;19;20187;-79
2024/02/03 09:34:04;;;;;;;17.23;7.30;;;13.00;99.90;;;;;;7286898;19;20190;-79
2024/02/03 09:36:33;;;;;;;18.17;7.27;;;13.00;99.90;;;;;;7286997;19;20270;-78
2024/02/03 09:38:59;;;;;;;19.20;6.83;;;13.10;99.90;;;;;;7284287;19;20189;-79
2024/02/03 09:41:26;;;;;;;21.70;7.47;;;13.00;99.90;;;;;;7286632;19;20243;-79
2024/02/03 09:43:55;;;;;;;17.47;6.70;;;12.90;99.90;;;;;;7287357;19;20268;-79
2024/02/03 09:46:21;;;;;;;19.80;6.80;;;13.00;99.90;;;;;;7288924;19;20551;-79
2024/02/03 09:48:47;;;;;;;21.37;6.83;;;13.10;99.90;;;;;;7289437;19;20190;-82
2024/02/03 09:51:13;;;;;;;24.60;7.47;;;13.10;99.90;;;;;;7309362;19;20282;-82
2024/02/03 09:53:39;;;;;;;16.97;7.43;;;13.20;99.90;;;;;;7288529;19;20199;-82
2024/02/03 09:56:06;;;;;;;20.37;6.43;;;13.30;99.90;;;;;;7288608;19;20190;-82
2024/02/03 09:58:32;;;;;;;19.87;7.40;;;13.20;99.90;;;;;;7289689;19;20197;-82
2024/02/03 10:00:58;;;;;;;14.00;6.43;;;13.20;99.90;;;;;;7287465;19;20261;-82
2024/02/03 10:03:24;;;;;;;19.93;6.63;;;13.00;99.90;;;;;;7289058;19;20193;-81
2024/02/03 10:05:58;;;;;;;21.20;7.00;;;13.10;99.90;;;;;;7287395;19;20186;-82
2024/02/03 10:08:24;;;;;;;19.37;6.40;;;13.10;99.90;;;;;;7286954;19;20195;-83
2024/02/03 10:10:56;;;;;;;18.83;7.07;;;13.10;99.90;;;;;;7287592;19;20190;-83
2024/02/03 10:13:23;;;;;;;17.57;6.77;;;13.10;99.90;;;;;;7288844;19;20197;-83
2024/02/03 10:16:03;;;;;;;16.80;6.60;;;13.20;99.90;;;;;;7287518;19;20202;-83
2024/02/03 10:18:33;;;;;;;14.97;5.93;;;13.30;99.90;;;;;;7288267;19;20619;-83
2024/02/03 10:21:03;;;;;;;16.93;6.03;;;13.20;99.90;;;;;;7287347;19;20202;-83
2024/02/03 10:23:29;;;;;;;15.20;6.07;;;13.10;99.90;;;;;;7287895;19;20187;-82
2024/02/03 10:25:58;;;;;;;14.77;6.13;;;13.10;99.90;;;;;;7287722;19;20200;-81
2024/02/03 10:28:24;;;;;;;21.07;6.87;;;13.00;99.90;;;;;;7288045;19;20213;-82
2024/02/03 10:30:53;;;;;;;18.97;7.20;;;12.70;99.90;;;;;;7285869;19;20182;-82
2024/02/03 10:33:19;;;;;;;23.23;7.23;;;12.60;99.90;;;;;;7287630;19;20196;-82
2024/02/03 10:35:47;;;;;;;18.73;7.30;;;12.60;99.90;;;;;;7296714;19;20190;-80
2024/02/03 10:38:13;;;;;;;18.70;7.30;;;12.70;99.90;;;;;;7309412;19;20220;-82
2024/02/03 10:40:39;;;;;;;21.43;7.30;;;12.80;99.90;;;;;;7286950;19;20219;-82
2024/02/03 10:43:22;;;;;;;17.53;7.20;;;12.90;99.90;;;;;;7287294;19;20186;-82
2024/02/03 10:45:54;;;;;;;16.30;6.47;;;12.90;99.90;;;;;;7267421;19;20287;-82
2024/02/03 10:48:23;;;;;;;17.17;7.03;;;12.90;99.90;;;;;;7287122;19;20195;-83
2024/02/03 10:50:54;;;;;;;17.53;6.57;;;12.90;99.90;;;;;;7288158;19;20206;-82
2024/02/03 10:53:25;;;;;;;17.97;6.30;;;12.80;99.90;;;;;;7277536;19;20355;-83
2024/02/03 10:55:56;;;;;;;15.33;6.47;;;12.80;99.90;;;;;;7282765;19;20186;-83
2024/02/03 10:58:26;;;;;;;15.87;6.30;;;12.90;99.90;;;;;;7284153;19;20185;-83
2024/02/03 11:00:53;;;;;;;15.40;6.40;;;12.90;99.90;;;;;;7281877;19;20185;-83
2024/02/03 11:03:21;;;;;;;17.17;6.43;;;13.00;99.90;;;;;;7282221;19;20190;-82
2024/02/03 11:05:48;;;;;;;17.90;6.17;;;13.00;99.90;;;;;;7283156;19;20563;-82
2024/02/03 11:08:18;;;;;;;15.57;6.00;;;13.00;99.90;;;;;;7296985;19;20197;-82
2024/02/03 11:10:48;;;;;;;16.27;6.03;;;13.10;99.90;;;;;;7295777;19;20191;-84
2024/02/03 11:13:22;;;;;;;17.97;6.30;;;13.20;99.90;;;;;;7295385;19;20737;-84
2024/02/03 11:15:54;;;;;;;15.17;5.93;;;13.20;99.90;;;;;;7285693;19;21082;-83
2024/02/03 11:18:19;;;;;;;13.40;5.80;;;13.20;99.90;;;;;;7391397;19;20222;-83
2024/02/03 11:20:45;;;;;;;15.90;6.60;;;13.20;99.90;;;;;;7396445;19;20595;-82
2024/02/03 11:23:13;;;;;;;19.80;6.90;;;13.30;99.90;;;;;;7396330;19;20157;-85
2024/02/03 11:25:43;;;;;;;14.87;6.10;;;13.40;99.90;;;;;;7410757;19;20127;-84
2024/02/03 11:28:10;;;;;;;13.43;6.83;;;13.40;99.90;;;;;;7416123;19;20169;-85
2024/02/03 11:30:36;;;;;;;16.07;6.30;;;13.40;99.90;;;;;;7355694;19;20243;-85
2024/02/03 11:33:02;;;;;;;18.87;6.27;;;13.50;99.90;;;;;;7287347;19;20192;-85
2024/02/03 11:35:28;;;;;;;18.40;6.53;;;13.40;99.90;;;;;;7302299;19;20735;-85
2024/02/03 11:37:53;;;;;;;17.50;6.37;;;13.40;99.90;;;;;;7287639;19;20193;-86
2024/02/03 11:40:19;;;;;;;14.70;6.10;;;13.40;99.90;;;;;;7286236;19;20840;-85
2024/02/03 11:42:45;;;;;;;15.47;6.40;;;13.30;99.90;;;;;;7305276;19;20190;-85
2024/02/03 11:45:14;;;;;;;16.67;6.07;;;13.40;99.90;;;;;;7309808;19;20202;-85
2024/02/03 11:47:41;;;;;;;11.03;5.87;;;13.40;99.90;;;;;;7283115;19;20560;-85
2024/02/03 11:50:08;;;;;;;14.03;5.60;;;13.30;99.90;;;;;;7284496;19;20191;-85
2024/02/03 11:52:34;;;;;;;16.13;6.20;;;13.30;99.90;;;;;;7285579;19;20590;-87
2024/02/03 11:55:00;;;;;;;14.90;6.30;;;13.20;99.90;;;;;;7283327;19;20270;-85
2024/02/03 11:57:26;;;;;;;14.80;5.87;;;13.30;99.90;;;;;;7284476;19;20191;-84
2024/02/03 12:00:05;;;;;;;19.50;6.87;;;13.40;99.90;;;;;;7284501;19;20186;-85
2024/02/03 12:02:32;;;;;;;15.10;6.03;;;13.40;99.90;;;;;;7284137;19;20191;-84
2024/02/03 12:04:58;;;;;;;17.27;6.23;;;13.30;99.90;;;;;;7281321;19;20288;-84
2024/02/03 12:07:24;;;;;;;15.40;6.03;;;13.30;99.90;;;;;;7286177;19;20317;-86
2024/02/03 12:09:50;;;;;;;16.33;6.40;;;13.30;99.90;;;;;;7285029;19;20203;-84
2024/02/03 12:12:16;;;;;;;19.90;6.03;;;13.30;99.90;;;;;;7285119;19;20187;-84
2024/02/03 12:14:42;;;;;;;17.20;6.80;;;13.40;99.90;;;;;;7299982;19;20196;-86
2024/02/03 12:17:09;;;;;;;17.40;6.47;;;13.30;99.90;;;;;;7283263;19;20191;-84
2024/02/03 12:19:35;;;;;;;16.03;6.57;;;13.30;99.90;;;;;;7283584;19;20188;-83
2024/02/03 12:22:01;;;;;;;18.77;6.67;;;13.30;99.90;;;;;;7286144;19;20195;-84
2024/02/03 12:24:29;;;;;;;18.57;5.77;;;13.20;99.90;;;;;;7286132;19;20197;-81
2024/02/03 12:26:54;;;;;;;20.07;6.00;;;13.30;99.90;;;;;;7282211;19;20189;-86
2024/02/03 12:29:20;;;;;;;14.23;5.10;;;13.30;99.90;;;;;;7286625;19;20210;-85
2024/02/03 12:31:46;;;;;;;20.07;6.03;;;13.40;99.90;;;;;;7287146;19;20254;-87